Flight Track Log - Related Links

Times and Time Zones

All times are in EDT time to prevent confusion due to time zone crossing. See the SWA554 flight status page for this flight to view local times or setup timezone preferences in your user account.

Time Position Orientation Groundspeed Altitude Reporting Facility
EDT Latitude Longitude Course Direction KTS MPH feet Rate Location/Type
Mon 02:50:13 PM 42.9853 -87.8069 60° Northeast 243 280 4,300  Level Chicago Center
Mon 02:51:15 PM 42.9642 -87.7142 107° East 262 302 5,600 2,160 Climbing Chicago Center
Mon 02:52:18 PM 42.8981 -87.6669 152° Southeast 264 304 8,800 3,216 Climbing Chicago Center
Mon 02:53:20 PM 42.8306 -87.6925 196° South 271 312 12,300 2,081 Climbing Chicago Center
Mon 02:54:22 PM 42.7458 -87.7317 199° South 296 341 13,100 1,500 Climbing Chicago Center
Mon 02:55:24 PM 42.6544 -87.7058 168° South 333 383 15,400 2,952 Climbing Chicago Center
Mon 02:56:26 PM 42.5528 -87.6678 165° South 363 418 19,200 3,387 Climbing Chicago Center
Mon 02:57:28 PM 42.4539 -87.6322 165° South 367 422 22,400 2,855 Climbing Chicago Center
Mon 02:58:30 PM 42.3517 -87.5953 165° South 378 435 25,100 2,323 Climbing Chicago Center
Mon 02:59:32 PM 42.2558 -87.5181 149° Southeast 424 488 27,200 1,935 Climbing Chicago Center
Mon 03:00:34 PM 42.2169 -87.3492 107° East 476 548 29,100 1,984 Climbing Chicago Center
Mon 03:01:36 PM 42.1731 -87.1367 106° East 490 564 31,300 1,984 Climbing Chicago Center
Mon 03:02:38 PM 42.1367 -86.9539 105° East 501 577 33,200 1,645 Climbing Chicago Center
Mon 03:03:40 PM 42.0992 -86.7722 105° East 504 580 34,700 1,258 Climbing Chicago Center
Mon 03:04:42 PM 42.0594 -86.5831 106° East 518 596 35,800 1,161 Climbing Chicago Center
Mon 03:05:44 PM 42.0189 -86.3903 106° East 535 616 37,100 1,548 Climbing Chicago Center
Mon 03:06:46 PM 41.9803 -86.2044 106° East 524 603 39,000 919 Climbing Chicago Center
Mon 03:07:48 PM 41.9431 -86.0344 106° East 483 556 39,000  Level Chicago Center
Mon 03:08:50 PM 41.8972 -85.8264 106° East 482 555 39,000  Level Chicago Center
Mon 03:09:52 PM 41.8597 -85.6506 106° East 487 560 39,000  Level Chicago Center
Mon 03:10:54 PM 41.8211 -85.4728 106° East 490 564 39,000  Level Chicago Center
Mon 03:11:56 PM 41.7811 -85.2917 106° East 494 568 39,000  Level Chicago Center
Mon 03:12:58 PM 41.7411 -85.1117 107° East 498 573 39,000  Level Chicago Center
Mon 03:13:33 PM 41.7164 -84.9956 106° East 504 580 39,000  Level Cleveland Center
Mon 03:14:33 PM 41.6753 -84.8203 107° East 504 580 39,000  Level Cleveland Center
Mon 03:15:33 PM 41.6611 -84.6331 96° East 504 580 39,000  Level Cleveland Center
Mon 03:16:33 PM 41.6528 -84.4519 93° East 498 573 39,000  Level Cleveland Center
Mon 03:17:33 PM 41.6444 -84.2597 93° East 505 581 39,000  Level Cleveland Center
Mon 03:18:33 PM 41.6331 -84.0950 95° East 505 581 39,000  Level Cleveland Center
Mon 03:19:33 PM 41.5778 -83.9228 113° Southeast 489 563 39,000  Level Cleveland Center
Mon 03:20:33 PM 41.5092 -83.7636 120° Southeast 494 568 39,000  Level Cleveland Center
Mon 03:21:33 PM 41.4408 -83.5997 119° Southeast 494 568 39,000  Level Cleveland Center
Mon 03:22:33 PM 41.3661 -83.4192 119° Southeast 500 575 39,000  Level Cleveland Center
Mon 03:23:33 PM 41.2969 -83.2586 120° Southeast 500 575 39,000  Level Cleveland Center
Mon 03:24:33 PM 41.2358 -83.1125 119° Southeast 500 575 39,000  Level Cleveland Center
Mon 03:25:33 PM 41.1603 -82.9358 120° Southeast 500 575 39,000  Level Cleveland Center
Mon 03:26:33 PM 41.0925 -82.7736 119° Southeast 500 575 39,000  Level Cleveland Center
Mon 03:27:32 PM 41.0225 -82.6142 120° Southeast 500 575 39,000  Level Cleveland Center
Mon 03:28:32 PM 40.9525 -82.4525 120° Southeast 500 575 39,000  Level Cleveland Center
Mon 03:29:33 PM 40.8819 -82.2942 120° Southeast 500 575 39,000  Level Cleveland Center
Mon 03:30:33 PM 40.8133 -82.1358 120° Southeast 495 570 39,000  Level Cleveland Center
Mon 03:31:33 PM 40.7425 -81.9753 120° Southeast 500 575 39,000  Level Cleveland Center
Mon 03:32:33 PM 40.6714 -81.8150 120° Southeast 500 575 39,000  Level Cleveland Center
Mon 03:33:33 PM 40.6000 -81.6606 121° Southeast 505 581 39,000  Level Cleveland Center
Mon 03:34:33 PM 40.5306 -81.4983 119° Southeast 505 581 39,000  Level Cleveland Center
Mon 03:35:33 PM 40.4689 -81.3581 120° Southeast 500 575 39,000  Level Cleveland Center
Mon 03:36:33 PM 40.3864 -81.2128 127° Southeast 500 575 39,000  Level Cleveland Center
Mon 03:37:33 PM 40.2911 -81.0839 134° Southeast 494 568 39,000  Level Cleveland Center
Mon 03:38:33 PM 40.2000 -80.9556 133° Southeast 482 555 39,000  Level Cleveland Center
Mon 03:39:33 PM 40.1211 -80.8139 126° Southeast 482 555 39,000  Level Cleveland Center
Mon 03:40:33 PM 40.0775 -80.6400 108° East 482 555 39,000 -400 Level Cleveland Center
Mon 03:41:33 PM 40.0339 -80.4692 108° East 482 555 38,200 -850 Descending Cleveland Center
Mon 03:42:33 PM 39.9875 -80.3014 110° East 482 555 37,300 -1,000 Descending Cleveland Center
Mon 03:43:33 PM 39.9392 -80.1147 109° East 488 562 36,200 -832 Descending Cleveland Center
Mon 03:45:26 PM 39.8550 -79.7972 109° East 493 567 34,900 -1,353 Descending Washington Center
Mon 03:46:26 PM 39.8125 -79.6408 109° East 495 570 32,300 -2,450 Descending Washington Center
Mon 03:47:26 PM 39.7678 -79.4736 109° East 495 570 30,000 -2,250 Descending Washington Center
Mon 03:48:26 PM 39.7231 -79.3092 109° East 490 564 27,800 -2,150 Descending Washington Center
Mon 03:49:26 PM 39.6797 -79.1533 110° East 472 543 25,700 -1,950 Descending Washington Center
Mon 03:50:26 PM 39.6467 -79.0033 106° East 454 522 23,900 -2,000 Descending Washington Center
Mon 03:51:26 PM 39.6011 -78.8397 110° East 447 514 21,700 -1,900 Descending Washington Center
Mon 03:52:26 PM 39.5697 -78.6928 105° East 436 502 20,100 -1,300 Descending Washington Center
Mon 03:53:26 PM 39.5378 -78.5489 106° East 418 481 19,100 -900 Descending Washington Center
Mon 03:54:26 PM 39.5133 -78.4350 106° East 418 481 18,300 -900 Descending Washington Center
Mon 03:55:26 PM 39.4814 -78.2858 105° East 402 463 17,300 -1,550 Descending Washington Center
Mon 03:56:26 PM 39.4511 -78.1503 106° East 397 457 15,200 -1,150 Descending Washington Center
Mon 03:57:26 PM 39.4478 -78.0103 92° East 397 457 15,000 -100 Descending Washington Center
Mon 03:58:26 PM 39.4464 -77.8706 91° East 387 445 15,000 50 Level Washington Center
Mon 03:59:26 PM 39.4489 -77.7336 89° East 387 445 15,100 -800 Climbing Washington Center
Mon 04:00:26 PM 39.4469 -77.5964 91° East 387 445 13,400 -1,800 Descending Washington Center
Mon 04:01:26 PM 39.4450 -77.4647 91° East 382 440 11,500 -1,200 Descending Washington Center
Mon 04:02:26 PM 39.4489 -77.3411 88° East 360 414 11,000 -492 Descending Washington Center
Mon 04:03:28 PM 39.4667 -77.2000 81° East 324 373 10,500 -927 Descending Potomac TRACON
Mon 04:04:29 PM 39.4833 -77.1000 78° East 318 366 9,100 -1,339 Descending Potomac TRACON
Mon 04:05:29 PM 39.5000 -76.9833 79° East 309 356 7,800 -1,339 Descending Potomac TRACON
Mon 04:06:30 PM 39.4500 -76.9000 128° Southeast 281 323 6,400 -1,339 Descending Potomac TRACON
Mon 04:07:30 PM 39.4000 -76.8667 153° Southeast 260 299 5,100 -1,250 Descending Potomac TRACON
Mon 04:08:30 PM 39.3167 -76.8500 171° South 244 281 3,900 -1,190 Descending Potomac TRACON
Mon 04:09:31 PM 39.2500 -76.8500 180° South 237 273 2,700 -942 Descending Potomac TRACON
Mon 04:10:31 PM 39.1833 -76.8333 169° South 223 257 2,000 -550 Descending Potomac TRACON
Mon 04:11:31 PM 39.1833 -76.7667 90° East 144 166 1,600 -650 Descending Potomac TRACON
Mon 04:12:31 PM 39.1833 -76.7333 90° East 129 148 700 -900 Descending Potomac TRACON
Mon 04:14:00 PM 39.1667 -76.6667 142° Southeast  Level FlightAware Approximate
Mon 04:21:00 PM 39.1754 -76.6683 142° Southeast  Level Estimated
Mon 04:22:00 PM 39.1754 -76.6683 142° Southeast  Level Estimated
Mon 04:23:00 PM 39.1754 -76.6683 142° Southeast  Level Estimated
Mon 04:24:00 PM 39.1754 -76.6683 142° Southeast  Level Estimated

Login

Don't have an account? Register now (free) for customized features, flight alerts, and more!